This is the latest recevied weather packets stored in our database for station/object K4CRS-13. If no packets are shown the sender has not sent any weather packets the latest 10 day(s).
| Time | Temp. | Humidity | Pressure | Rain* | Wind** | Luminosity | Snow |
|---|---|---|---|---|---|---|---|
| 1787767624 | 33.33° C | 59% | 1051 hPa | 0 mm | - | 529 W/m² | - |
| 1787767323 | 33.33° C | 60% | 1050.7 hPa | 0 mm | - | 409 W/m² | - |
| 1787767022 | 32.78° C | 63% | 1050.9 hPa | 0 mm | - | 475 W/m² | - |
| 1787766716 | 33.33° C | 61% | 1050.9 hPa | 0 mm | - | 303 W/m² | - |
| 1787766415 | 33.33° C | 61% | 1051.2 hPa | 0 mm | - | 362 W/m² | - |
| 1787766116 | 32.78° C | 62% | 1051.4 hPa | 0 mm | - | 494 W/m² | - |
| 1787765811 | 32.78° C | 61% | 1051.5 hPa | 0 mm | - | 513 W/m² | - |
| 1787765508 | 32.78° C | 63% | 1051.4 hPa | 0 mm | - | 980 W/m² | - |
| 1787765207 | 32.78° C | 60% | 1051.7 hPa | 0 mm | - | 402 W/m² | - |
| 1787764906 | 33.33° C | 62% | 1051.5 hPa | 0 mm | - | 405 W/m² | - |
| 1787764602 | 33.89° C | 58% | 1051.7 hPa | 0 mm | - | 409 W/m² | - |
| 1787764297 | 33.89° C | 59% | 1051.6 hPa | 0 mm | - | 504 W/m² | - |
| 1787763993 | 34.44° C | 60% | 1051.8 hPa | 0 mm | - | 755 W/m² | - |
| 1787763688 | 33.33° C | 60% | 1051.8 hPa | 0 mm | - | 700 W/m² | - |
| 1787763384 | 34.44° C | 59% | 1052 hPa | 0 mm | - | 366 W/m² | - |
| 1787763083 | 33.89° C | 59% | 1051.9 hPa | 0 mm | - | 740 W/m² | - |
| 1787762783 | 32.78° C | 61% | 1052 hPa | 0 mm | - | 748 W/m² | - |
| 1787762478 | 31.67° C | 64% | 1052 hPa | 0 mm | - | 719 W/m² | - |
| 1787762174 | 32.22° C | 62% | 1052.1 hPa | 0 mm | - | 415 W/m² | - |
| 1787761870 | 33.33° C | 61% | 1052.1 hPa | 0 mm | - | 536 W/m² | - |
| 1787761565 | 33.33° C | 60% | 1052.1 hPa | 0 mm | - | 581 W/m² | - |
| 1787761260 | 32.78° C | 61% | 1052.3 hPa | 0 mm | - | 651 W/m² | - |
| 1787760959 | 33.89° C | 58% | 1052.3 hPa | 0 mm | - | 688 W/m² | - |
| 1787760657 | 33.33° C | 59% | 1052 hPa | 0 mm | - | 606 W/m² | - |
| 1787760356 | 33.89° C | 57% | 1052.1 hPa | 0 mm | - | 623 W/m² | - |
* Rain latest hour (hover to see other rain measurements)
** Current wind speed in m/s (hover to see current wind gust speed)